createdAt,value
2023-05-24T00:01:30.855Z,100013.69
2023-05-24T00:06:34.976Z,100014.03
2023-05-24T00:11:36.664Z,100022.78
2023-05-24T00:16:38.358Z,100024.97
2023-05-24T00:21:40.079Z,100023.28
2023-05-24T00:26:41.728Z,100022.75
2023-05-24T00:31:43.475Z,100025.66
2023-05-24T00:36:45.273Z,100016.91
2023-05-24T00:41:46.958Z,100033.19
2023-05-24T00:46:48.765Z,100038.91
2023-05-24T00:51:53.471Z,100038.75
2023-05-24T00:56:56.691Z,100031.84
2023-05-24T01:02:00.650Z,100036.22
2023-05-24T01:07:02.287Z,100039.25
2023-05-24T01:12:07.072Z,100034.53
2023-05-24T01:17:52.220Z,100052.84
2023-05-24T01:23:12.728Z,100043.75
2023-05-24T01:28:17.349Z,100050.84
2023-05-24T01:33:19.531Z,100054.84
2023-05-24T01:38:21.189Z,100055.78
2023-05-24T01:43:31.577Z,100056.31
2023-05-24T01:48:42.102Z,100061.66
2023-05-24T01:53:47.718Z,100059.53
2023-05-24T01:58:52.878Z,100067.88
2023-05-24T02:03:55.595Z,100065.69
2023-05-24T02:08:57.324Z,100061.50
2023-05-24T02:13:58.973Z,100066.25
2023-05-24T02:19:00.634Z,100056.63
2023-05-24T02:24:02.314Z,100055.13
2023-05-24T02:29:04.535Z,100059.91
2023-05-24T02:34:06.217Z,100054.84
2023-05-24T02:39:07.895Z,100052.66
2023-05-24T02:44:09.754Z,100052.78
2023-05-24T02:49:11.460Z,100042.16
2023-05-24T02:54:13.106Z,100053.00
2023-05-24T02:59:15.063Z,100042.28
2023-05-24T03:04:17.379Z,100036.78
2023-05-24T03:09:19.180Z,100046.13
2023-05-24T03:14:24.000Z,100041.88
2023-05-24T03:19:26.593Z,100056.34
2023-05-24T03:24:28.566Z,100061.25
2023-05-24T03:29:30.244Z,100062.78
2023-05-24T03:34:32.375Z,100058.97
2023-05-24T03:39:34.540Z,100054.94
2023-05-24T03:44:50.502Z,100069.91
2023-05-24T03:49:52.267Z,100069.63
2023-05-24T03:54:53.985Z,100067.00
2023-05-24T03:59:55.925Z,100072.63
2023-05-24T04:04:57.842Z,100079.19
2023-05-24T04:10:00.030Z,100085.81
2023-05-24T04:15:01.999Z,100093.16
2023-05-24T04:20:05.812Z,100094.66
2023-05-24T04:25:10.060Z,100087.72
2023-05-24T04:30:12.228Z,100098.56
2023-05-24T04:35:14.307Z,100090.09
2023-05-24T04:40:20.949Z,100098.25
2023-05-24T04:45:22.702Z,100101.97
2023-05-24T04:50:24.463Z,100110.69
2023-05-24T04:55:26.128Z,100120.09
2023-05-24T05:00:27.815Z,100131.81
2023-05-24T05:05:29.590Z,100129.81
2023-05-24T05:10:31.257Z,100132.13
2023-05-24T05:15:33.037Z,100135.41
2023-05-24T05:20:34.909Z,100142.91
2023-05-24T05:25:36.653Z,100142.81
2023-05-24T05:30:38.335Z,100143.09
2023-05-24T05:35:40.077Z,100148.47
2023-05-24T05:40:41.975Z,100147.31
2023-05-24T05:45:43.788Z,100139.72
2023-05-24T05:50:45.436Z,100149.88
2023-05-24T05:55:47.113Z,100153.41
2023-05-24T06:00:48.784Z,100151.28
2023-05-24T06:05:50.489Z,100146.66
2023-05-24T06:10:53.062Z,100151.78
2023-05-24T06:15:55.445Z,100163.41
2023-05-24T06:20:57.143Z,100171.34
2023-05-24T06:25:59.133Z,100170.81
2023-05-24T06:31:00.892Z,100178.84
2023-05-24T06:36:02.624Z,100174.34
2023-05-24T06:41:04.313Z,100181.81
2023-05-24T06:46:06.969Z,100185.53
2023-05-24T06:51:08.691Z,100169.44
2023-05-24T06:56:10.472Z,100180.22
2023-05-24T07:01:12.218Z,100190.94
2023-05-24T07:06:15.740Z,100199.88
2023-05-24T07:11:17.512Z,100192.84
2023-05-24T07:16:19.438Z,100197.06
2023-05-24T07:21:21.568Z,100197.06
2023-05-24T07:26:23.802Z,100191.00
2023-05-24T07:31:26.653Z,100203.31
2023-05-24T07:36:31.588Z,100216.28
2023-05-24T07:41:37.158Z,100210.72
2023-05-24T07:46:38.941Z,100227.16
2023-05-24T07:51:40.607Z,100224.53
2023-05-24T07:56:42.974Z,100233.94
2023-05-24T08:01:44.662Z,100227.84
2023-05-24T08:06:46.764Z,100231.91
2023-05-24T08:11:48.565Z,100235.63
2023-05-24T08:16:50.235Z,100241.50
2023-05-24T08:21:52.200Z,100234.56
2023-05-24T08:26:53.869Z,100237.78
2023-05-24T08:31:55.618Z,100229.31
2023-05-24T08:36:57.900Z,100231.25
2023-05-24T08:47:09.061Z,100245.84
2023-05-24T08:52:12.743Z,100241.00
2023-05-24T08:57:15.868Z,100246.59
2023-05-24T09:02:18.650Z,100251.88
2023-05-24T09:07:24.335Z,100237.00
2023-05-24T09:12:36.558Z,100245.38
2023-05-24T09:17:43.457Z,100249.13
2023-05-24T09:22:47.526Z,100245.34
2023-05-24T09:27:51.553Z,100246.25
2023-05-24T09:33:01.268Z,100245.75
2023-05-24T09:38:04.031Z,100248.38
2023-05-24T09:43:10.139Z,100241.19
2023-05-24T09:48:13.721Z,100244.06
2023-05-24T09:53:19.384Z,100243.03
2023-05-24T09:58:21.915Z,100252.41
2023-05-24T10:03:25.381Z,100246.97
2023-05-24T10:08:28.020Z,100228.59
2023-05-24T10:13:29.772Z,100259.97
2023-05-24T10:18:31.950Z,100242.22
2023-05-24T10:23:35.650Z,100247.03
2023-05-24T10:29:01.216Z,100247.34
2023-05-24T10:34:08.651Z,100248.41
2023-05-24T10:39:13.869Z,100252.28
2023-05-24T10:44:19.523Z,100259.22
2023-05-24T10:49:22.667Z,100265.75
2023-05-24T10:54:27.370Z,100249.00
2023-05-24T10:59:37.481Z,100275.16
2023-05-24T11:04:43.552Z,100265.22
2023-05-24T11:09:52.780Z,100275.91
2023-05-24T11:14:54.529Z,100272.31
2023-05-24T11:19:56.829Z,100270.47
2023-05-24T11:25:02.758Z,100264.88
2023-05-24T11:30:06.057Z,100250.91
2023-05-24T11:35:11.080Z,100245.81
2023-05-24T11:40:13.829Z,100258.69
2023-05-24T11:45:17.759Z,100258.19
2023-05-24T11:50:26.614Z,100261.22
2023-05-24T11:55:30.722Z,100260.81
2023-05-24T12:00:32.631Z,100241.78
2023-05-24T12:05:34.466Z,100260.81
2023-05-24T12:10:37.866Z,100254.25
2023-05-24T12:15:39.697Z,100245.31
2023-05-24T12:20:42.457Z,100253.50
2023-05-24T12:25:44.490Z,100248.91
2023-05-24T12:30:46.637Z,100245.03
2023-05-24T12:35:48.736Z,100244.28
2023-05-24T12:41:07.441Z,100238.88
2023-05-24T12:46:13.311Z,100241.16
2023-05-24T12:51:15.002Z,100246.22
2023-05-24T12:56:17.035Z,100237.41
2023-05-24T13:01:19.190Z,100237.94
2023-05-24T13:06:21.051Z,100243.69
2023-05-24T13:11:25.212Z,100237.56
2023-05-24T13:16:27.071Z,100228.16
2023-05-24T13:21:29.420Z,100228.81
2023-05-24T13:26:31.229Z,100230.25
2023-05-24T13:31:33.361Z,100222.84
2023-05-24T13:36:35.166Z,100219.28
2023-05-24T13:41:37.222Z,100228.50
2023-05-24T13:46:39.288Z,100225.03
2023-05-24T13:51:41.096Z,100218.47
2023-05-24T13:56:44.816Z,100225.03
2023-05-24T14:01:46.674Z,100212.03
2023-05-24T14:06:48.335Z,100207.81
2023-05-24T14:11:50.145Z,100214.75
2023-05-24T14:16:54.977Z,100215.59
2023-05-24T14:21:56.746Z,100212.00
2023-05-24T14:26:58.474Z,100210.13
2023-05-24T14:32:00.296Z,100204.19
2023-05-24T14:37:02.252Z,100220.06
2023-05-24T14:42:04.092Z,100211.22
2023-05-24T14:47:06.068Z,100206.38
2023-05-24T14:52:07.723Z,100198.69
2023-05-24T14:57:09.527Z,100204.13
2023-05-24T15:02:11.662Z,100216.69
2023-05-24T15:07:13.334Z,100206.00
2023-05-24T15:12:15.158Z,100218.28
2023-05-24T15:17:17.549Z,100212.63
2023-05-24T15:22:20.618Z,100203.91
2023-05-24T15:27:22.287Z,100217.28
2023-05-24T15:32:23.962Z,100213.69
2023-05-24T15:37:25.915Z,100216.22
2023-05-24T15:42:27.709Z,100217.34
2023-05-24T15:47:30.432Z,100213.91
2023-05-24T15:52:32.203Z,100214.34
2023-05-24T15:57:33.864Z,100211.22
2023-05-24T16:02:35.771Z,100216.78
2023-05-24T16:07:37.489Z,100214.34
2023-05-24T16:12:39.163Z,100205.00
2023-05-24T16:17:40.921Z,100198.09
2023-05-24T16:22:51.475Z,100191.31
2023-05-24T16:27:55.508Z,100197.69
2023-05-24T16:32:57.283Z,100212.13
2023-05-24T16:37:59.093Z,100213.94
2023-05-24T16:43:00.728Z,100209.03
2023-05-24T16:48:02.577Z,100221.69
2023-05-24T16:53:06.470Z,100222.09
2023-05-24T16:58:08.468Z,100213.69
2023-05-24T17:03:10.355Z,100220.09
2023-05-24T17:08:12.168Z,100222.16
2023-05-24T17:13:13.831Z,100220.22
2023-05-24T17:18:15.725Z,100219.03
2023-05-24T17:23:18.586Z,100219.88
2023-05-24T17:28:27.512Z,100232.16
2023-05-24T17:33:30.708Z,100231.63
2023-05-24T17:38:37.695Z,100242.78
2023-05-24T17:43:40.529Z,100247.53
2023-05-24T17:48:43.501Z,100255.00
2023-05-24T17:53:46.476Z,100256.13
2023-05-24T17:58:48.599Z,100261.09
2023-05-24T18:03:50.249Z,100253.25
2023-05-24T18:08:51.920Z,100245.97
2023-05-24T18:13:53.648Z,100250.75
2023-05-24T18:18:55.340Z,100269.03
2023-05-24T18:23:57.181Z,100267.16
2023-05-24T18:28:58.815Z,100264.53
2023-05-24T18:34:01.909Z,100271.47
2023-05-24T18:39:04.237Z,100278.63
2023-05-24T18:44:06.009Z,100280.88
2023-05-24T18:49:10.988Z,100283.69
2023-05-24T18:54:13.810Z,100280.44
2023-05-24T18:59:16.847Z,100292.31
2023-05-24T19:04:18.539Z,100294.03
2023-05-24T19:09:20.194Z,100294.41
2023-05-24T19:14:22.174Z,100291.53
2023-05-24T19:19:23.830Z,100298.56
2023-05-24T19:24:26.028Z,100313.13
2023-05-24T19:29:28.235Z,100317.94
2023-05-24T19:34:31.960Z,100322.34
2023-05-24T19:39:33.633Z,100328.44
2023-05-24T19:44:35.298Z,100337.31
2023-05-24T19:49:37.003Z,100334.63
2023-05-24T19:54:38.640Z,100333.97
2023-05-24T19:59:40.439Z,100343.09
2023-05-24T20:04:43.819Z,100347.69
2023-05-24T20:09:45.562Z,100353.06
2023-05-24T20:14:47.284Z,100348.63
2023-05-24T20:19:48.963Z,100358.00
2023-05-24T20:24:50.741Z,100363.69
2023-05-24T20:29:52.399Z,100370.72
2023-05-24T20:34:54.055Z,100372.69
2023-05-24T20:39:56.092Z,100377.13
2023-05-24T20:44:58.106Z,100383.50
2023-05-24T20:49:59.795Z,100390.34
2023-05-24T20:55:01.724Z,100391.25
2023-05-24T21:00:04.571Z,100397.47
2023-05-24T21:05:06.748Z,100395.56
2023-05-24T21:10:09.432Z,100395.66
2023-05-24T21:15:11.245Z,100409.69
2023-05-24T21:20:12.935Z,100404.94
2023-05-24T21:25:14.749Z,100410.50
2023-05-24T21:30:16.509Z,100416.56
2023-05-24T21:35:18.257Z,100410.75
2023-05-24T21:40:19.908Z,100405.31
2023-05-24T21:45:21.607Z,100420.94
2023-05-24T21:50:23.250Z,100413.91
2023-05-24T21:55:24.972Z,100417.47
2023-05-24T22:00:27.219Z,100414.19
2023-05-24T22:05:28.898Z,100430.84
2023-05-24T22:10:30.573Z,100437.06
2023-05-24T22:15:32.261Z,100442.28
2023-05-24T22:20:34.162Z,100446.59
2023-05-24T22:25:36.312Z,100450.53
2023-05-24T22:30:38.054Z,100449.69
2023-05-24T22:35:40.075Z,100442.19
2023-05-24T22:40:42.406Z,100449.56
2023-05-24T22:45:44.372Z,100446.25
2023-05-24T22:50:46.738Z,100452.41
2023-05-24T22:55:48.414Z,100452.63
2023-05-24T23:00:51.356Z,100462.75
2023-05-24T23:05:53.726Z,100462.69
2023-05-24T23:10:58.210Z,100455.53
2023-05-24T23:16:00.279Z,100448.91
2023-05-24T23:21:03.088Z,100451.75
2023-05-24T23:26:04.794Z,100457.50
2023-05-24T23:31:06.548Z,100451.72
2023-05-24T23:36:09.991Z,100466.72
2023-05-24T23:41:11.825Z,100468.31
2023-05-24T23:46:17.214Z,100472.66
2023-05-24T23:51:20.331Z,100470.56
2023-05-24T23:56:22.228Z,100464.72
